^^
Station Historical Data
 
Daily Summary for February 23, 2017 Units:  English    Metric   Both
« Previous Day
Next Day »
Daily Weekly Monthly Yearly Custom
  Current: High: Low: Average:
Temperature: 64.6 °F 66.4 °F 63.5 °F 65.1 °F
Dew Point: 63.1 °F 64.4 °F 62.3 °F 63.1 °F
Humidity: 95% 96% 89% 93%
Wind Speed: 1.0mph 13.0mph 0.0mph 3.6mph
Wind Gust: 3.0mph 23.0mph - -
WindWSW - - SE
Pressure: 29.58 in 29.62 in 29.54 in -
Precipitation: 0.28 in      
Historical Graphs
 
 
Tabular Data for February 23, 2017
Time Temperature Dew Point Pressure Wind Wind Speed Wind Gust Humidity Rainfall Rate (Hourly) solar Conditions
00:00 63.5 °F 62.3 °F 29.62 in Calm   1.0 mph 96% 0.00 in 0.0 W/m2 -RA
00:09 63.6 °F 62.4 °F 29.62 in Calm     96% 0.00 in 0.0 W/m2 -RA
00:20 63.7 °F 62.5 °F 29.62 in Calm   2.0 mph 96% 0.00 in 0.0 W/m2 -RA
00:30 63.8 °F 62.6 °F 29.62 in Calm   1.0 mph 96% 0.00 in 0.0 W/m2 -RA
00:40 63.9 °F 62.7 °F 29.61 in North 1.0 mph 3.0 mph 96% 0.00 in 0.0 W/m2 -RA
00:45 63.9 °F 62.8 °F 29.61 in North 2.0 mph 6.0 mph 96% 0.00 in 0.0 W/m2 -RA
00:50 64.0 °F 62.8 °F 29.60 in NNW 2.0 mph 7.0 mph 96% 0.00 in 0.0 W/m2 -RA
01:00 64.0 °F 62.8 °F 29.59 in North 1.0 mph 5.0 mph 96% 0.00 in 0.0 W/m2 -RA
01:10 64.0 °F 62.5 °F 29.59 in NNW 3.0 mph 6.0 mph 95% 0.00 in 0.0 W/m2 RA
01:15 64.1 °F 62.6 °F 29.58 in NNW 2.0 mph 7.0 mph 95% 0.01 in 0.0 W/m2 RA
01:20 64.1 °F 62.6 °F 29.58 in NNW 3.0 mph 9.0 mph 95% 0.00 in 0.0 W/m2 OVC
01:30 64.1 °F 62.6 °F 29.58 in North 3.0 mph 7.0 mph 95% 0.00 in 0.0 W/m2 OVC
01:40 64.2 °F 62.8 °F 29.56 in North 1.0 mph 8.0 mph 95% 0.00 in 0.0 W/m2 -RA
01:45 64.3 °F 62.8 °F 29.56 in North 2.0 mph 5.0 mph 95% 0.00 in 0.0 W/m2 -RA
01:50 64.4 °F 62.9 °F 29.56 in North 1.0 mph 5.0 mph 95% 0.00 in 0.0 W/m2 OVC
02:00 64.6 °F 63.1 °F 29.56 in NNE 1.0 mph 8.0 mph 95% 0.00 in 0.0 W/m2 OVC
02:10 64.7 °F 63.2 °F 29.55 in NNE 2.0 mph 6.0 mph 95% 0.00 in 0.0 W/m2 RA
02:15 64.8 °F 63.3 °F 29.55 in NE 2.0 mph 6.0 mph 95% 0.00 in 0.0 W/m2 OVC
02:20 65.0 °F 63.5 °F 29.54 in NE 5.0 mph 7.0 mph 95% 0.00 in 0.0 W/m2 OVC
02:30 65.3 °F 63.8 °F 29.54 in NE 3.0 mph 8.0 mph 95% 0.00 in 0.0 W/m2 OVC
02:40 65.6 °F 64.1 °F 29.54 in NE 5.0 mph 12.0 mph 95% 0.00 in 0.0 W/m2 BKN
02:45 65.8 °F 64.3 °F 29.54 in ENE 6.0 mph 10.0 mph 95% 0.00 in 0.0 W/m2 BKN
02:50 66.0 °F 64.2 °F 29.54 in NE 6.0 mph 12.0 mph 94% 0.00 in 0.0 W/m2 BKN
03:00 66.2 °F 64.4 °F 29.55 in ENE 6.0 mph 12.0 mph 94% 0.00 in 0.0 W/m2 BKN
03:10 66.4 °F 64.3 °F 29.54 in ENE 12.0 mph 20.0 mph 93% 0.00 in 0.0 W/m2 BKN
03:15 66.4 °F 64.3 °F 29.55 in NE 10.0 mph 20.0 mph 93% 0.00 in 0.0 W/m2 BKN
03:20 66.4 °F 64.0 °F 29.55 in ENE 10.0 mph 20.0 mph 92% 0.00 in 0.0 W/m2 BKN
03:30 66.1 °F 63.4 °F 29.55 in ENE 9.0 mph 23.0 mph 91% 0.00 in 0.0 W/m2 BKN
03:40 65.8 °F 63.1 °F 29.55 in ENE 13.0 mph 21.0 mph 91% 0.00 in 0.0 W/m2 BKN
03:45 65.8 °F 63.1 °F 29.55 in ENE 12.0 mph 20.0 mph 91% 0.00 in 0.0 W/m2 BKN
03:50 66.0 °F 62.9 °F 29.55 in ENE 8.0 mph 15.0 mph 90% 0.00 in 0.0 W/m2 BKN
04:00 66.1 °F 62.8 °F 29.55 in ENE 7.0 mph 17.0 mph 89% 0.00 in 0.0 W/m2 BKN
04:10 66.1 °F 62.8 °F 29.55 in ENE 8.0 mph 15.0 mph 89% 0.00 in 0.0 W/m2 OVC
04:15 66.2 °F 62.8 °F 29.55 in ENE 7.0 mph 13.0 mph 89% 0.00 in 0.0 W/m2 OVC
04:20 66.1 °F 62.8 °F 29.56 in ENE 5.0 mph 10.0 mph 89% 0.00 in 0.0 W/m2 OVC
04:30 66.0 °F 63.0 °F 29.56 in ENE 5.0 mph 10.0 mph 90% 0.00 in 0.0 W/m2 OVC
04:40 65.9 °F 63.2 °F 29.57 in East 3.0 mph 6.0 mph 91% 0.00 in 0.0 W/m2 OVC
04:45 65.9 °F 63.2 °F 29.57 in ENE 5.0 mph 7.0 mph 91% 0.00 in 0.0 W/m2 OVC
04:50 65.9 °F 63.2 °F 29.57 in ENE 2.0 mph 7.0 mph 91% 0.00 in 0.0 W/m2 OVC
05:00 65.8 °F 63.1 °F 29.56 in East 1.0 mph 3.0 mph 91% 0.00 in 0.0 W/m2 OVC
05:10 65.7 °F 63.0 °F 29.57 in East 1.0 mph 2.0 mph 91% 0.00 in 0.0 W/m2 OVC
05:15 65.6 °F 62.9 °F 29.57 in Calm     91% 0.00 in 0.0 W/m2 OVC
05:20 65.6 °F 63.2 °F 29.57 in Calm     92% 0.00 in 0.0 W/m2 OVC
05:30 65.5 °F 63.1 °F 29.57 in SSE 1.0 mph 1.0 mph 92% 0.00 in 0.0 W/m2 OVC
05:40 65.3 °F 62.9 °F 29.57 in WSW 1.0 mph 2.0 mph 92% 0.00 in 0.0 W/m2 OVC
05:45 65.3 °F 63.2 °F 29.57 in WSW 1.0 mph 3.0 mph 93% 0.00 in 0.0 W/m2 OVC
05:50 65.2 °F 63.1 °F 29.57 in WSW 1.0 mph 3.0 mph 93% 0.01 in 0.0 W/m2 RA
06:00 65.0 °F 62.9 °F 29.57 in WSW 2.0 mph 4.0 mph 93% 0.01 in 0.0 W/m2 RA
06:10 64.7 °F 62.9 °F 29.57 in SW 2.0 mph 4.0 mph 94% 0.00 in 0.0 W/m2 -RA
06:15 64.7 °F 62.9 °F 29.57 in WSW 1.0 mph 3.0 mph 94% 0.01 in 0.0 W/m2 -RA
06:20 64.7 °F 62.9 °F 29.57 in WSW 1.0 mph 3.0 mph 94% 0.00 in 0.0 W/m2 -RA
06:30 64.6 °F 63.1 °F 29.58 in WSW 1.0 mph 3.0 mph 95% 0.00 in 0.0 W/m2 -RA
Lake Mary, FL, USA
Compliments of Weather Underground - 1.25 mb